createdAt,value
2017-10-26T00:00:16.343Z,77.90
2017-10-26T00:02:42.534Z,77.30
2017-10-26T00:05:08.746Z,77.00
2017-10-26T00:07:35.157Z,77.10
2017-10-26T00:10:02.888Z,77.40
2017-10-26T00:12:30.830Z,77.80
2017-10-26T00:14:57.544Z,77.90
2017-10-26T00:17:24.263Z,78.90
2017-10-26T00:19:51.225Z,77.40
2017-10-26T00:22:18.053Z,77.30
2017-10-26T00:24:44.871Z,77.40
2017-10-26T00:27:12.432Z,77.00
2017-10-26T00:29:39.665Z,77.30
2017-10-26T00:32:06.405Z,77.40
2017-10-26T00:34:33.411Z,76.80
2017-10-26T00:36:59.848Z,76.80
2017-10-26T00:39:26.064Z,76.90
2017-10-26T00:41:52.408Z,76.80
2017-10-26T00:44:19.665Z,78.10
2017-10-26T00:46:47.841Z,78.50
2017-10-26T00:49:14.871Z,77.70
2017-10-26T00:51:41.171Z,77.70
2017-10-26T00:54:07.939Z,77.70
2017-10-26T00:56:34.165Z,77.30
2017-10-26T00:59:01.328Z,77.10
2017-10-26T01:01:27.556Z,78.90
2017-10-26T01:03:54.807Z,78.60
2017-10-26T01:06:21.086Z,78.60
2017-10-26T01:08:47.950Z,78.40
2017-10-26T01:11:15.491Z,78.50
2017-10-26T01:13:42.210Z,78.50
2017-10-26T01:16:09.086Z,78.20
2017-10-26T01:18:36.720Z,78.00
2017-10-26T01:21:04.173Z,78.00
2017-10-26T01:23:32.350Z,77.90
2017-10-26T01:25:59.339Z,78.00
2017-10-26T01:28:25.679Z,77.90
2017-10-26T01:30:52.429Z,78.00
2017-10-26T01:33:20.121Z,77.60
2017-10-26T01:35:46.324Z,77.40
2017-10-26T01:38:13.130Z,77.80
2017-10-26T01:40:40.513Z,78.10
2017-10-26T01:43:07.570Z,77.80
2017-10-26T01:45:33.843Z,77.60
2017-10-26T01:48:00.043Z,77.80
2017-10-26T01:50:26.795Z,77.90
2017-10-26T01:52:54.011Z,78.20
2017-10-26T01:55:20.396Z,78.40
2017-10-26T01:57:48.248Z,78.40
2017-10-26T02:00:15.254Z,78.00
2017-10-26T02:02:42.007Z,77.90
2017-10-26T02:05:09.164Z,78.10
2017-10-26T02:07:36.838Z,78.70
2017-10-26T02:10:04.062Z,78.60
2017-10-26T02:12:30.996Z,78.60
2017-10-26T02:14:57.863Z,78.60
2017-10-26T02:17:25.022Z,78.40
2017-10-26T02:19:52.896Z,79.10
2017-10-26T02:22:19.392Z,78.50
2017-10-26T02:24:45.907Z,78.00
2017-10-26T02:27:12.519Z,77.90
2017-10-26T02:29:51.957Z,77.80
2017-10-26T02:32:18.809Z,77.80
2017-10-26T02:34:46.330Z,77.80
2017-10-26T02:37:13.336Z,77.60
2017-10-26T02:39:39.878Z,77.50
2017-10-26T02:42:06.792Z,77.90
2017-10-26T02:44:34.078Z,78.30
2017-10-26T02:47:01.684Z,77.90
2017-10-26T02:49:27.961Z,77.90
2017-10-26T02:51:54.723Z,77.70
2017-10-26T02:54:21.627Z,77.80
2017-10-26T02:56:49.276Z,77.90
2017-10-26T02:59:16.771Z,77.80
2017-10-26T03:01:43.133Z,77.80
2017-10-26T03:04:10.005Z,77.90
2017-10-26T03:06:36.998Z,78.40
2017-10-26T03:09:04.265Z,78.40
2017-10-26T03:11:31.629Z,78.20
2017-10-26T03:13:59.798Z,78.50
2017-10-26T03:16:26.735Z,79.60
2017-10-26T03:18:53.484Z,78.90
2017-10-26T03:21:19.770Z,78.50
2017-10-26T03:23:46.541Z,79.40
2017-10-26T03:26:12.806Z,79.00
2017-10-26T03:28:39.330Z,78.90
2017-10-26T03:31:06.293Z,81.00
2017-10-26T03:33:33.235Z,80.30
2017-10-26T03:36:00.705Z,80.70
2017-10-26T03:38:27.654Z,79.60
2017-10-26T03:40:54.590Z,79.00
2017-10-26T03:43:22.430Z,79.10
2017-10-26T03:45:48.643Z,79.10
2017-10-26T03:48:14.819Z,79.40
2017-10-26T03:50:42.358Z,79.30
2017-10-26T03:53:09.898Z,79.60
2017-10-26T03:55:37.116Z,79.20
2017-10-26T03:58:03.882Z,79.80
2017-10-26T04:00:30.107Z,79.20
2017-10-26T04:02:56.311Z,79.00
2017-10-26T04:05:23.683Z,79.00
2017-10-26T04:07:50.451Z,79.40
2017-10-26T04:10:16.632Z,79.10
2017-10-26T04:12:42.839Z,79.10
2017-10-26T04:15:09.129Z,78.90
2017-10-26T04:17:35.847Z,79.00
2017-10-26T04:20:02.099Z,78.90
2017-10-26T04:22:29.199Z,79.60
2017-10-26T04:24:56.250Z,79.60
2017-10-26T04:27:22.703Z,79.90
2017-10-26T04:29:51.013Z,79.60
2017-10-26T04:32:18.599Z,79.50
2017-10-26T04:34:47.323Z,79.40
2017-10-26T04:37:13.559Z,79.50
2017-10-26T04:39:40.377Z,79.30
2017-10-26T04:42:06.980Z,79.20
2017-10-26T04:44:33.762Z,79.30
2017-10-26T04:47:00.309Z,79.60
2017-10-26T04:49:28.351Z,79.40
2017-10-26T04:51:55.580Z,79.30
2017-10-26T04:54:23.479Z,80.90
2017-10-26T04:56:49.702Z,80.90
2017-10-26T04:59:16.488Z,82.40
2017-10-26T05:01:49.692Z,82.20
2017-10-26T05:04:17.091Z,82.30
2017-10-26T05:06:43.311Z,82.30
2017-10-26T05:09:10.082Z,81.40
2017-10-26T05:11:37.356Z,80.70
2017-10-26T05:14:03.597Z,80.90
2017-10-26T05:16:30.554Z,80.30
2017-10-26T05:18:58.062Z,80.00
2017-10-26T05:21:24.255Z,79.80
2017-10-26T05:23:50.632Z,79.60
2017-10-26T05:26:16.855Z,80.00
2017-10-26T05:28:43.558Z,79.80
2017-10-26T05:31:09.769Z,80.20
2017-10-26T05:33:36.005Z,80.10
2017-10-26T05:36:02.675Z,80.80
2017-10-26T05:38:29.687Z,81.30
2017-10-26T05:40:56.009Z,81.30
2017-10-26T05:43:22.564Z,81.60
2017-10-26T05:45:49.617Z,81.40
2017-10-26T05:48:15.877Z,81.30
2017-10-26T05:50:42.664Z,81.00
2017-10-26T05:53:09.465Z,81.00
2017-10-26T05:55:35.766Z,82.30
2017-10-26T05:58:02.015Z,83.40
2017-10-26T06:00:28.501Z,83.70
2017-10-26T06:02:55.539Z,83.40
2017-10-26T06:05:22.512Z,83.10
2017-10-26T06:07:49.294Z,83.10
2017-10-26T06:10:15.983Z,83.70
2017-10-26T06:12:43.003Z,83.60
2017-10-26T06:15:10.545Z,83.80
2017-10-26T06:17:37.494Z,83.80
2017-10-26T06:20:05.040Z,82.60
2017-10-26T06:22:32.719Z,82.80
2017-10-26T06:25:00.108Z,83.10
2017-10-26T06:27:27.177Z,83.50
2017-10-26T06:29:53.355Z,83.50
2017-10-26T06:32:20.508Z,83.30
2017-10-26T06:34:47.984Z,83.70
2017-10-26T06:37:14.246Z,83.70
2017-10-26T06:39:40.986Z,83.50
2017-10-26T06:42:08.532Z,83.40
2017-10-26T06:44:35.301Z,83.30
2017-10-26T06:47:02.626Z,83.70
2017-10-26T06:49:29.436Z,84.30
2017-10-26T06:51:55.887Z,84.50
2017-10-26T06:54:22.354Z,84.30
2017-10-26T06:56:49.361Z,84.30
2017-10-26T06:59:15.584Z,84.20
2017-10-26T07:01:41.825Z,83.90
2017-10-26T07:04:08.656Z,83.80
2017-10-26T07:06:36.762Z,84.00
2017-10-26T07:09:03.978Z,84.00
2017-10-26T07:11:30.214Z,84.60
2017-10-26T07:13:57.048Z,84.70
2017-10-26T07:26:08.683Z,84.50
2017-10-26T07:28:34.908Z,84.00
2017-10-26T07:31:02.423Z,84.60
2017-10-26T07:33:29.716Z,84.60
2017-10-26T07:35:58.028Z,83.40
2017-10-26T07:38:25.464Z,83.40
2017-10-26T07:40:53.165Z,83.40
2017-10-26T07:43:20.238Z,83.20
2017-10-26T07:45:46.494Z,84.20
2017-10-26T07:48:12.710Z,83.10
2017-10-26T07:50:40.356Z,81.80
2017-10-26T07:53:07.254Z,81.80
2017-10-26T07:55:34.496Z,81.00
2017-10-26T07:58:01.227Z,81.60
2017-10-26T08:00:28.107Z,82.30
2017-10-26T08:02:54.662Z,81.50
2017-10-26T08:05:21.853Z,81.70
2017-10-26T08:07:48.903Z,81.90
2017-10-26T08:10:15.486Z,81.90
2017-10-26T08:12:42.517Z,81.80
2017-10-26T08:15:09.497Z,81.80
2017-10-26T08:17:37.100Z,81.80
2017-10-26T08:20:03.426Z,81.80
2017-10-26T08:22:30.463Z,81.70
2017-10-26T08:24:57.229Z,81.50
2017-10-26T08:27:23.996Z,81.80
2017-10-26T08:29:50.762Z,81.80
2017-10-26T08:32:17.664Z,81.80
2017-10-26T08:34:45.224Z,81.60
2017-10-26T08:37:11.775Z,81.40
2017-10-26T08:39:38.771Z,81.40
2017-10-26T08:42:05.648Z,81.30
2017-10-26T08:44:32.499Z,81.60
2017-10-26T08:47:00.165Z,81.50
2017-10-26T08:49:27.001Z,81.50
2017-10-26T08:51:53.296Z,81.40
2017-10-26T08:54:20.160Z,81.30
2017-10-26T08:56:46.398Z,81.30
2017-10-26T08:59:13.146Z,80.60
2017-10-26T09:01:39.399Z,79.90
2017-10-26T09:04:06.923Z,80.80
2017-10-26T09:06:33.676Z,80.70
2017-10-26T09:09:00.464Z,80.60
2017-10-26T09:11:26.905Z,80.00
2017-10-26T09:13:54.001Z,80.30
2017-10-26T09:16:20.283Z,80.90
2017-10-26T09:18:46.857Z,79.90
2017-10-26T09:21:13.143Z,80.00
2017-10-26T09:23:39.992Z,80.20
2017-10-26T09:26:06.210Z,80.00
2017-10-26T09:28:32.459Z,80.40
2017-10-26T09:30:59.269Z,80.60
2017-10-26T09:33:32.659Z,80.50
2017-10-26T09:35:59.767Z,80.80
2017-10-26T09:38:26.456Z,80.80
2017-10-26T09:40:53.684Z,81.00
2017-10-26T09:43:20.660Z,80.40
2017-10-26T09:45:46.927Z,80.30
2017-10-26T09:48:13.748Z,80.10
2017-10-26T09:50:39.994Z,80.40
2017-10-26T09:53:06.642Z,80.50
2017-10-26T09:55:34.294Z,81.10
2017-10-26T09:58:01.492Z,81.10
2017-10-26T10:00:28.352Z,80.90
2017-10-26T10:02:55.170Z,80.40
2017-10-26T10:05:23.025Z,81.30
2017-10-26T10:07:50.110Z,80.90
2017-10-26T10:10:16.336Z,80.90
2017-10-26T10:12:43.112Z,80.30
2017-10-26T10:15:09.689Z,80.00
2017-10-26T10:17:36.663Z,79.60
2017-10-26T10:20:03.014Z,79.60
2017-10-26T10:22:31.006Z,79.20
2017-10-26T10:24:57.382Z,79.20
2017-10-26T10:27:23.610Z,79.20
2017-10-26T10:29:50.196Z,79.80
2017-10-26T10:32:17.650Z,79.40
2017-10-26T10:34:45.318Z,79.50
2017-10-26T10:37:12.181Z,79.50
2017-10-26T10:39:39.357Z,79.70
2017-10-26T10:42:05.590Z,79.70
2017-10-26T10:44:32.687Z,80.10
2017-10-26T10:47:00.854Z,80.40
2017-10-26T10:49:27.424Z,80.40
2017-10-26T10:51:54.398Z,80.20
2017-10-26T10:54:21.184Z,80.20
2017-10-26T10:56:47.669Z,79.70
2017-10-26T10:59:20.563Z,79.80
2017-10-26T11:01:46.840Z,80.20
2017-10-26T11:04:13.650Z,79.50
2017-10-26T11:06:41.189Z,79.00
2017-10-26T11:09:08.404Z,78.30
2017-10-26T11:11:35.928Z,79.50
2017-10-26T11:14:02.672Z,79.30
2017-10-26T11:16:29.721Z,80.40
2017-10-26T11:18:56.475Z,80.30
2017-10-26T11:21:23.986Z,79.70
2017-10-26T11:23:51.300Z,79.00
2017-10-26T11:26:19.592Z,79.60
2017-10-26T11:28:46.244Z,79.60
2017-10-26T11:31:13.743Z,79.00
2017-10-26T11:33:40.780Z,79.00
2017-10-26T11:36:07.131Z,79.00
2017-10-26T11:38:33.881Z,78.90
2017-10-26T11:41:00.872Z,79.40
2017-10-26T11:43:27.650Z,79.40
2017-10-26T11:45:53.930Z,79.20
2017-10-26T11:48:21.085Z,79.10
2017-10-26T11:50:47.330Z,78.10
2017-10-26T11:53:14.162Z,77.40
2017-10-26T11:55:41.491Z,77.50
2017-10-26T11:58:07.745Z,77.50
2017-10-26T12:00:34.539Z,78.40
2017-10-26T12:03:02.141Z,77.60
2017-10-26T12:05:28.936Z,78.20
2017-10-26T12:07:55.278Z,77.30
2017-10-26T12:10:22.334Z,77.80
2017-10-26T12:12:50.278Z,77.30
2017-10-26T12:15:16.516Z,77.30
2017-10-26T12:17:42.856Z,77.10
2017-10-26T12:20:09.832Z,76.90
2017-10-26T12:22:36.486Z,76.90
2017-10-26T12:25:04.007Z,78.00
2017-10-26T12:27:31.679Z,77.50
2017-10-26T12:29:57.931Z,77.50
2017-10-26T12:32:24.172Z,77.30
2017-10-26T12:34:50.412Z,77.00
2017-10-26T12:37:17.211Z,76.40
2017-10-26T12:39:43.597Z,76.70
2017-10-26T12:42:10.085Z,76.90
2017-10-26T12:44:37.037Z,77.50
2017-10-26T12:47:03.637Z,76.90
2017-10-26T12:49:31.346Z,77.20
2017-10-26T12:51:58.079Z,77.20
2017-10-26T12:54:24.346Z,76.50
2017-10-26T12:56:51.004Z,76.90
2017-10-26T12:59:17.317Z,77.40
2017-10-26T13:01:43.581Z,77.80
2017-10-26T13:04:10.475Z,78.30
2017-10-26T13:06:36.743Z,77.90
2017-10-26T13:09:03.002Z,78.40
2017-10-26T13:11:29.363Z,78.30
2017-10-26T13:13:55.693Z,77.90
2017-10-26T13:16:22.562Z,78.50
2017-10-26T13:18:49.655Z,78.50
2017-10-26T13:21:16.232Z,78.50
2017-10-26T13:23:43.054Z,78.80
2017-10-26T13:26:10.079Z,78.90
2017-10-26T13:28:36.275Z,78.90
2017-10-26T13:31:03.286Z,78.50
2017-10-26T13:33:30.285Z,78.50
2017-10-26T13:35:56.519Z,77.30
2017-10-26T13:38:22.754Z,77.90
2017-10-26T13:40:49.182Z,77.50
2017-10-26T13:43:15.665Z,77.70
2017-10-26T13:45:41.920Z,77.70
2017-10-26T13:48:08.297Z,77.40
2017-10-26T13:50:34.813Z,78.20
2017-10-26T13:53:03.310Z,77.10
2017-10-26T13:55:30.624Z,77.00
2017-10-26T13:57:58.882Z,76.70
2017-10-26T14:00:26.473Z,76.30
2017-10-26T14:02:52.723Z,76.20
2017-10-26T14:05:20.084Z,76.20
2017-10-26T14:07:46.557Z,76.30
2017-10-26T14:10:13.718Z,76.80
2017-10-26T14:12:40.711Z,77.20
2017-10-26T14:15:06.943Z,77.20
2017-10-26T14:17:33.318Z,77.50
2017-10-26T14:20:01.612Z,76.90
2017-10-26T14:22:27.782Z,76.80
2017-10-26T14:24:54.699Z,77.00
2017-10-26T14:27:20.918Z,77.40
2017-10-26T14:29:47.145Z,76.40
2017-10-26T14:32:13.403Z,76.50
2017-10-26T14:34:39.804Z,76.50
2017-10-26T14:37:07.210Z,76.50
2017-10-26T14:39:34.835Z,76.80
2017-10-26T14:42:01.101Z,76.80
2017-10-26T14:44:27.335Z,76.80
2017-10-26T14:46:53.767Z,77.20
2017-10-26T14:49:20.761Z,76.10
2017-10-26T14:51:47.156Z,76.10
2017-10-26T14:54:14.214Z,76.80
2017-10-26T14:56:40.419Z,76.80
2017-10-26T14:59:06.937Z,76.80
2017-10-26T15:01:34.165Z,77.00
2017-10-26T15:04:00.516Z,76.50
2017-10-26T15:06:27.043Z,77.00
2017-10-26T15:09:03.811Z,76.60
2017-10-26T15:11:30.783Z,76.60
2017-10-26T15:13:57.499Z,76.40
2017-10-26T15:16:23.840Z,76.50
2017-10-26T15:18:51.006Z,76.60
2017-10-26T15:21:17.592Z,76.70
2017-10-26T15:23:45.171Z,77.00
2017-10-26T15:26:11.720Z,76.90
2017-10-26T15:28:38.687Z,77.50
2017-10-26T15:31:06.866Z,77.40
2017-10-26T15:33:34.464Z,77.30
2017-10-26T15:36:00.727Z,77.30
2017-10-26T15:38:27.384Z,77.10
2017-10-26T15:40:54.305Z,76.80
2017-10-26T15:43:21.278Z,76.70
2017-10-26T15:45:48.802Z,76.80
2017-10-26T15:48:15.304Z,77.70
2017-10-26T15:50:41.925Z,77.00
2017-10-26T15:53:08.962Z,77.20
2017-10-26T15:55:36.657Z,78.50
2017-10-26T15:58:03.031Z,78.30
2017-10-26T16:00:29.594Z,78.10
2017-10-26T16:02:57.543Z,78.20
2017-10-26T16:05:23.906Z,78.20
2017-10-26T16:07:50.200Z,78.40
2017-10-26T16:10:16.489Z,78.20
2017-10-26T16:12:42.848Z,78.30
2017-10-26T16:15:09.086Z,78.10
2017-10-26T16:17:36.511Z,77.90
2017-10-26T16:20:04.324Z,78.50
2017-10-26T16:22:31.232Z,78.50
2017-10-26T16:24:57.427Z,78.00
2017-10-26T16:27:24.674Z,78.20
2017-10-26T16:29:58.730Z,78.20
2017-10-26T16:32:25.525Z,78.20
2017-10-26T16:34:51.750Z,78.00
2017-10-26T16:37:17.960Z,77.90
2017-10-26T16:39:45.611Z,78.50
2017-10-26T16:42:12.833Z,78.50
2017-10-26T16:44:39.836Z,78.60
2017-10-26T16:47:06.100Z,78.50
2017-10-26T16:49:32.346Z,78.80
2017-10-26T16:51:59.559Z,77.90
2017-10-26T16:54:25.985Z,77.60
2017-10-26T16:56:52.773Z,77.50
2017-10-26T16:59:19.011Z,77.70
2017-10-26T17:01:45.843Z,77.60
2017-10-26T17:04:12.644Z,77.70
2017-10-26T17:06:39.343Z,77.80
2017-10-26T17:09:06.371Z,77.90
2017-10-26T17:11:32.563Z,77.90
2017-10-26T17:13:59.563Z,77.80
2017-10-26T17:16:26.511Z,77.90
2017-10-26T17:18:54.008Z,78.00
2017-10-26T17:21:20.809Z,78.00
2017-10-26T17:23:48.073Z,78.20
2017-10-26T17:26:14.943Z,78.80
2017-10-26T17:28:42.317Z,78.70
2017-10-26T17:31:09.815Z,78.10
2017-10-26T17:33:37.362Z,78.60
2017-10-26T17:36:04.574Z,78.50
2017-10-26T17:38:31.616Z,78.50
2017-10-26T17:40:59.335Z,79.00
2017-10-26T17:43:28.353Z,78.80
2017-10-26T17:45:54.589Z,78.80
2017-10-26T17:48:20.949Z,78.90
2017-10-26T17:50:47.682Z,79.00
2017-10-26T17:53:16.878Z,79.80
2017-10-26T17:55:43.894Z,80.70
2017-10-26T17:58:10.882Z,80.70
2017-10-26T18:00:38.075Z,80.80
2017-10-26T18:03:04.693Z,80.00
2017-10-26T18:05:32.665Z,80.70
2017-10-26T18:07:59.635Z,80.20
2017-10-26T18:10:26.044Z,80.10
2017-10-26T18:12:54.234Z,79.60
2017-10-26T18:15:21.479Z,79.50
2017-10-26T18:17:49.494Z,79.40
2017-10-26T18:20:16.330Z,79.40
2017-10-26T18:22:42.544Z,80.60
2017-10-26T18:25:09.920Z,80.10
2017-10-26T18:27:37.196Z,80.20
2017-10-26T18:30:04.380Z,79.70
2017-10-26T18:32:33.073Z,79.40
2017-10-26T18:35:00.710Z,79.40
2017-10-26T18:37:28.282Z,79.30
2017-10-26T18:39:55.246Z,79.70
2017-10-26T18:42:21.524Z,79.60
2017-10-26T18:44:48.446Z,79.50
2017-10-26T18:47:16.755Z,79.70
2017-10-26T18:49:44.727Z,80.30
2017-10-26T18:52:10.939Z,80.30
2017-10-26T18:54:38.077Z,80.60
2017-10-26T18:57:04.985Z,80.60
2017-10-26T18:59:32.788Z,79.60
2017-10-26T19:02:00.455Z,79.80
2017-10-26T19:04:27.017Z,79.80
2017-10-26T19:06:54.593Z,79.60
2017-10-26T19:09:20.805Z,79.50
2017-10-26T19:11:47.917Z,79.40
2017-10-26T19:14:14.449Z,79.40
2017-10-26T19:16:40.651Z,79.10
2017-10-26T19:19:07.551Z,79.20
2017-10-26T19:21:33.807Z,79.20
2017-10-26T19:24:00.974Z,79.10
2017-10-26T19:26:28.375Z,79.30
2017-10-26T19:28:55.455Z,79.40
2017-10-26T19:31:22.446Z,79.90
2017-10-26T19:33:48.700Z,80.60
2017-10-26T19:36:14.891Z,79.60
2017-10-26T19:38:41.249Z,79.60
2017-10-26T19:41:07.476Z,80.00
2017-10-26T19:43:34.373Z,79.80
2017-10-26T19:46:00.623Z,80.50
2017-10-26T19:48:26.868Z,79.70
2017-10-26T19:50:53.743Z,79.30
2017-10-26T19:53:22.400Z,80.00
2017-10-26T19:55:50.959Z,79.80
2017-10-26T19:58:17.818Z,79.80
2017-10-26T20:00:44.039Z,79.90
2017-10-26T20:03:10.836Z,79.60
2017-10-26T20:05:38.358Z,79.30
2017-10-26T20:08:05.163Z,79.20
2017-10-26T20:10:31.392Z,79.30
2017-10-26T20:12:58.308Z,79.30
2017-10-26T20:15:25.365Z,79.30
2017-10-26T20:17:51.728Z,79.30
2017-10-26T20:20:18.484Z,79.50
2017-10-26T20:22:44.732Z,79.50
2017-10-26T20:25:11.084Z,79.60
2017-10-26T20:27:37.286Z,79.50
2017-10-26T20:30:03.707Z,79.70
2017-10-26T20:32:30.777Z,79.50
2017-10-26T20:34:58.487Z,79.90
2017-10-26T20:37:25.729Z,79.80
2017-10-26T20:39:51.977Z,79.70
2017-10-26T20:42:18.198Z,79.80
2017-10-26T20:44:45.064Z,81.00
2017-10-26T20:47:11.293Z,81.40
2017-10-26T20:49:43.588Z,81.70
2017-10-26T20:52:17.107Z,82.20
2017-10-26T20:54:49.874Z,82.20
2017-10-26T20:57:35.921Z,82.70
2017-10-26T21:00:08.811Z,82.60
2017-10-26T21:18:50.846Z,83.10
2017-10-26T21:21:19.113Z,81.70
2017-10-26T21:23:46.287Z,81.50
2017-10-26T21:26:13.850Z,82.50
2017-10-26T21:28:40.649Z,82.50
2017-10-26T21:31:07.643Z,83.20
2017-10-26T21:33:40.550Z,83.20
2017-10-26T21:36:07.203Z,83.40
2017-10-26T21:38:34.211Z,82.50
2017-10-26T21:41:00.533Z,82.50
2017-10-26T21:43:26.749Z,82.30
2017-10-26T21:45:55.674Z,81.90
2017-10-26T21:48:22.568Z,81.90
2017-10-26T21:50:48.889Z,81.90
2017-10-26T21:53:16.715Z,82.00
2017-10-26T21:55:44.247Z,81.70
2017-10-26T21:58:13.918Z,81.80
2017-10-26T22:00:40.747Z,81.80
2017-10-26T22:03:07.491Z,81.80
2017-10-26T22:05:34.262Z,81.70
2017-10-26T22:08:02.009Z,84.30
2017-10-26T22:10:28.757Z,83.60
2017-10-26T22:12:54.979Z,83.00
2017-10-26T22:15:21.183Z,83.10
2017-10-26T22:17:48.061Z,83.10
2017-10-26T22:20:14.826Z,83.00
2017-10-26T22:22:41.571Z,82.40
2017-10-26T22:25:09.015Z,82.30
2017-10-26T22:27:35.933Z,83.00
2017-10-26T22:30:02.903Z,83.00
2017-10-26T22:32:30.538Z,82.50
2017-10-26T22:34:57.281Z,82.50
2017-10-26T22:37:23.669Z,82.90
2017-10-26T22:39:49.975Z,83.20
2017-10-26T22:42:16.197Z,82.80
2017-10-26T22:44:42.392Z,82.20
2017-10-26T22:47:08.661Z,83.30
2017-10-26T22:49:34.981Z,83.90
2017-10-26T22:52:02.401Z,83.00
2017-10-26T22:54:29.144Z,82.70
2017-10-26T22:56:55.676Z,82.30
2017-10-26T22:59:22.223Z,82.60
2017-10-26T23:01:49.696Z,81.80
2017-10-26T23:04:17.408Z,82.00
2017-10-26T23:06:43.600Z,81.90
2017-10-26T23:09:10.452Z,81.90
2017-10-26T23:11:37.193Z,81.90
2017-10-26T23:14:03.402Z,81.80
2017-10-26T23:16:31.048Z,82.90
2017-10-26T23:18:59.139Z,83.30
2017-10-26T23:21:25.597Z,83.30
2017-10-26T23:23:52.553Z,83.60
2017-10-26T23:26:19.318Z,84.20
2017-10-26T23:28:45.881Z,84.50
2017-10-26T23:31:12.900Z,84.80
2017-10-26T23:33:39.743Z,84.70
2017-10-26T23:36:07.143Z,85.40
2017-10-26T23:38:34.622Z,86.20
2017-10-26T23:41:01.217Z,86.20
2017-10-26T23:43:28.231Z,86.00
2017-10-26T23:45:55.116Z,85.90
2017-10-26T23:48:22.242Z,85.60
2017-10-26T23:50:49.065Z,85.60
2017-10-26T23:53:15.595Z,85.70
2017-10-26T23:55:42.514Z,85.10
2017-10-26T23:58:08.899Z,85.10
